Time;durP1;ratioP1;P1;durP2;ratioP2;P2;SDS_P1;SDS_P2;PMS_P1;PMS_P2;Temp;Humidity;BMP_temperature;BMP_pressure;BME280_temperature;BME280_humidity;BME280_pressure;Samples;Min_cycle;Max_cycle;Signal;HPM_P1;HPM_P2
2020/12/08 00:00:24;;;;;;;;;18.50;13.50;;;;;-3.51;66.41;102637.84;4361232;32;8944;-74
2020/12/08 00:02:54;;;;;;;;;5.00;3.50;;;;;-3.71;66.61;102624.91;4348021;33;8905;-74
2020/12/08 00:05:39;;;;;;;;;17.50;16.75;;;;;-3.71;66.66;102624.91;4373906;32;8902;-73
2020/12/08 00:08:35;;;;;;;;;10.50;10.50;;;;;-3.62;66.71;102620.22;4375571;32;8903;-72
2020/12/08 00:11:30;;;;;;;;;20.50;20.50;;;;;-3.60;66.30;102617.34;4367023;32;8891;-73
2020/12/08 00:13:58;;;;;;;;;16.00;15.75;;;;;-3.66;66.54;102606.25;4375773;32;8902;-72
2020/12/08 00:16:53;;;;;;;;;29.50;27.25;;;;;-3.50;66.49;102607.06;4374184;32;8911;-72
2020/12/08 00:19:50;;;;;;;;;20.00;20.00;;;;;-3.31;66.07;102617.25;4374864;32;8907;-72
2020/12/08 00:22:46;;;;;;;;;16.00;16.00;;;;;-3.62;66.80;102608.56;4375399;32;9006;-73
2020/12/08 00:25:42;;;;;;;;;12.50;11.75;;;;;-3.55;66.93;102606.78;4372739;32;8887;-73
2020/12/08 00:28:37;;;;;;;;;12.00;12.00;;;;;-3.33;66.51;102610.38;4374712;32;9023;-73
2020/12/08 00:31:12;;;;;;;;;24.00;23.00;;;;;-2.96;65.17;102609.28;4376830;32;8879;-73
2020/12/08 00:34:08;;;;;;;;;9.25;9.25;;;;;-3.10;65.57;102611.03;4374373;32;8880;-74
2020/12/08 00:37:07;;;;;;;;;12.00;12.00;;;;;-3.32;66.21;102602.06;4376097;32;8942;-73
2020/12/08 00:39:35;;;;;;;;;17.75;17.75;;;;;-3.44;66.56;102603.59;4375747;32;8898;-73
2020/12/08 00:42:22;;;;;;;;;3.75;0.25;;;;;-3.11;65.98;102607.47;4374902;32;9609;-73
2020/12/08 00:45:19;;;;;;;;;13.50;13.00;;;;;-3.15;66.11;102600.75;4374687;32;8903;-73
2020/12/08 00:48:16;;;;;;;;;12.50;12.50;;;;;-3.05;65.80;102603.16;4359145;33;8914;-74
2020/12/08 00:50:43;;;;;;;;;16.75;16.75;;;;;-2.95;65.89;102581.16;4334865;33;8897;-74
2020/12/08 00:53:39;;;;;;;;;10.50;10.25;;;;;-3.02;65.71;102586.53;4359369;33;9045;-74
2020/12/08 00:56:35;;;;;;;;;12.50;12.50;;;;;-2.96;65.65;102591.16;4359708;32;8917;-73
2020/12/08 00:59:02;;;;;;;;;15.00;15.00;;;;;-3.05;66.17;102592.34;4346799;33;8887;-73
2020/12/08 01:01:44;;;;;;;;;15.00;13.75;;;;;-2.82;65.44;102581.28;4361092;32;8906;-73
2020/12/08 01:04:19;;;;;;;;;16.75;16.75;;;;;-2.60;65.12;102592.94;4366467;32;8934;-74
2020/12/08 01:06:47;;;;;;;;;13.50;13.00;;;;;-2.85;65.56;102584.38;4375317;32;9001;-74
2020/12/08 01:09:43;;;;;;;;;15.75;15.75;;;;;-2.53;64.85;102586.53;4355125;32;8903;-73
2020/12/08 01:12:39;;;;;;;;;15.00;13.75;;;;;-2.64;65.46;102591.63;4359777;32;8924;-72
2020/12/08 01:15:34;;;;;;;;;12.33;12.33;;;;;-2.70;65.25;102585.13;4359014;33;8924;-72
2020/12/08 01:18:31;;;;;;;;;15.50;14.00;;;;;-2.78;65.99;102571.72;4359737;32;8920;-74
2020/12/08 01:21:28;;;;;;;;;15.00;15.00;;;;;-2.81;66.21;102566.72;4349209;33;8959;-72
2020/12/08 01:24:23;;;;;;;;;16.67;15.00;;;;;-2.59;65.57;102562.94;4371445;32;8901;-72
2020/12/08 01:26:56;;;;;;;;;12.00;12.00;;;;;-2.49;65.41;102567.16;4375395;32;8950;-72
2020/12/08 01:29:51;;;;;;;;;11.75;11.25;;;;;-2.47;65.49;102570.50;4373732;32;8921;-73
2020/12/08 01:32:47;;;;;;;;;15.00;13.00;;;;;-2.18;64.63;102577.56;4374749;32;8897;-73
2020/12/08 01:35:29;;;;;;;;;13.00;13.00;;;;;-2.11;63.87;102565.72;4361454;32;8919;-73
2020/12/08 01:38:18;;;;;;;;;15.33;13.67;;;;;-2.55;64.90;102552.53;4353134;32;8884;-73
2020/12/08 01:41:14;;;;;;;;;9.67;9.67;;;;;-2.42;64.92;102547.19;4363898;32;8940;-73
2020/12/08 01:44:09;;;;;;;;;8.00;8.00;;;;;-2.72;65.51;102554.69;4373762;32;8913;-73
2020/12/08 01:46:37;;;;;;;;;24.75;24.75;;;;;-2.68;65.86;102544.31;4374923;32;8912;-72
2020/12/08 01:49:25;;;;;;;;;19.50;16.00;;;;;-2.58;65.35;102548.34;4363142;32;8900;-74
2020/12/08 01:52:21;;;;;;;;;29.50;29.50;;;;;-2.66;65.43;102547.66;4368830;32;8948;-73
2020/12/08 01:55:16;;;;;;;;;46.00;40.50;;;;;-2.14;64.29;102549.03;4359085;32;9600;-73
2020/12/08 01:58:22;;;;;;;;;44.25;41.25;;;;;-2.67;65.24;102548.69;4358866;32;8893;-73
2020/12/08 02:01:20;;;;;;;;;44.00;42.75;;;;;-2.68;65.12;102549.75;4359491;32;8909;-74
2020/12/08 02:03:51;;;;;;;;;38.75;35.00;;;;;-2.68;65.27;102542.44;4359569;32;8908;-73
2020/12/08 02:06:47;;;;;;;;;35.25;32.75;;;;;-2.58;64.91;102544.78;4358428;32;9685;-74
2020/12/08 02:09:42;;;;;;;;;37.00;31.25;;;;;-2.73;64.51;102546.78;4361051;32;8937;-73
2020/12/08 02:12:39;;;;;;;;;43.00;36.75;;;;;-2.90;64.93;102544.38;4374164;32;8973;-73
2020/12/08 02:15:06;;;;;;;;;32.00;30.25;;;;;-3.02;64.67;102534.25;4373705;32;9582;-73
2020/12/08 02:17:34;;;;;;;;;27.25;27.25;;;;;-2.90;64.07;102541.66;4366769;32;8947;-74
2020/12/08 02:20:04;;;;;;;;;33.00;32.50;;;;;-2.96;64.39;102545.13;4346258;33;8958;-74
2020/12/08 02:22:59;;;;;;;;;35.75;33.75;;;;;-2.62;63.26;102538.09;4358011;33;9076;-73
2020/12/08 02:26:00;;;;;;;;;20.75;20.75;;;;;-2.77;63.66;102542.78;4358610;32;8917;-73
2020/12/08 02:28:55;;;;;;;;;17.50;17.50;;;;;-2.93;64.05;102543.91;4358051;32;8897;-73
2020/12/08 02:31:52;;;;;;;;;29.50;27.75;;;;;-2.82;63.64;102543.38;4369341;32;8899;-74
2020/12/08 02:34:49;;;;;;;;;19.00;18.25;;;;;-2.80;63.98;102549.44;4362772;32;8907;-73
2020/12/08 02:37:44;;;;;;;;;15.00;14.50;;;;;-2.88;64.36;102552.28;4362858;32;9038;-73
2020/12/08 02:40:40;;;;;;;;;19.50;18.50;;;;;-3.02;64.68;102550.50;4373172;32;8973;-73
2020/12/08 02:43:36;;;;;;;;;19.25;19.25;;;;;-2.88;64.34;102552.28;4372724;32;9597;-73
2020/12/08 02:46:04;;;;;;;;;26.25;25.75;;;;;-3.06;64.55;102550.06;4375285;32;8902;-73
2020/12/08 02:49:00;;;;;;;;;18.25;18.25;;;;;-2.78;63.89;102558.19;4358375;32;8984;-74
2020/12/08 02:51:58;;;;;;;;;17.00;17.00;;;;;-2.71;63.25;102556.38;4372350;32;9032;-74
2020/12/08 02:54:26;;;;;;;;;21.50;21.50;;;;;-2.96;63.76;102553.25;4366847;32;8929;-73
2020/12/08 02:57:22;;;;;;;;;13.25;11.50;;;;;-2.85;63.40;102566.25;4357733;32;8917;-73
2020/12/08 02:59:50;;;;;;;;;10.50;10.50;;;;;-2.84;63.48;102559.84;4359918;32;8982;-74
2020/12/08 03:02:17;;;;;;;;;8.00;8.00;;;;;-2.89;63.45;102558.75;4345201;33;8893;-73
2020/12/08 03:05:12;;;;;;;;;12.25;11.25;;;;;-3.17;64.03;102551.41;4358644;32;8960;-73
2020/12/08 03:07:54;;;;;;;;;27.50;25.25;;;;;-2.95;63.88;102552.22;4358437;32;8904;-73
2020/12/08 03:10:49;;;;;;;;;12.25;12.25;;;;;-2.89;63.67;102540.62;4348751;33;8952;-73
2020/12/08 03:13:45;;;;;;;;;12.50;12.50;;;;;-2.88;63.30;102552.28;4358894;32;8909;-73
2020/12/08 03:16:41;;;;;;;;;15.25;15.25;;;;;-3.14;64.65;102552.91;4369802;32;8969;-73
2020/12/08 03:19:36;;;;;;;;;20.00;18.00;;;;;-3.01;64.66;102544.03;4362424;32;8933;-74
2020/12/08 03:22:08;;;;;;;;;9.25;9.25;;;;;-3.14;65.08;102550.19;4358627;32;8904;-73
2020/12/08 03:25:05;;;;;;;;;10.25;8.75;;;;;-3.33;65.99;102550.84;4359944;32;8940;-73
2020/12/08 03:28:01;;;;;;;;;9.00;9.00;;;;;-3.06;65.52;102563.59;4362369;32;8901;-73
2020/12/08 03:30:42;;;;;;;;;10.50;10.50;;;;;-2.85;65.08;102557.28;4364435;32;8978;-74
2020/12/08 03:33:09;;;;;;;;;13.00;13.00;;;;;-2.76;64.63;102555.28;4363380;32;8892;-72
2020/12/08 03:36:13;;;;;;;;;12.00;10.50;;;;;-2.73;64.53;102557.59;4352719;33;8909;-72
2020/12/08 03:38:44;;;;;;;;;13.50;13.50;;;;;-3.08;65.11;102555.66;4360041;32;8878;-72
2020/12/08 03:41:40;;;;;;;;;11.50;11.00;;;;;-2.93;65.09;102549.31;4377971;32;9070;-72
2020/12/08 03:44:07;;;;;;;;;20.00;20.00;;;;;-2.80;64.71;102552.13;4366269;32;8898;-73
2020/12/08 03:47:04;;;;;;;;;7.50;7.50;;;;;-3.04;65.37;102549.88;4352553;33;8943;-73
2020/12/08 03:50:00;;;;;;;;;9.00;9.00;;;;;-3.15;66.26;102551.22;4362197;32;8889;-73
2020/12/08 03:52:57;;;;;;;;;6.75;6.75;;;;;-3.28;66.96;102551.09;4362085;32;8928;-74
2020/12/08 03:55:25;;;;;;;;;14.50;12.50;;;;;-3.15;66.83;102549.34;4364410;32;9036;-73
2020/12/08 03:57:54;;;;;;;;;13.00;13.00;;;;;-3.18;67.01;102549.75;4362790;32;8896;-73
2020/12/08 04:00:49;;;;;;;;;24.50;22.50;;;;;-2.78;66.18;102544.66;4362153;33;9539;-73
2020/12/08 04:03:49;;;;;;;;;43.00;37.50;;;;;-2.65;65.73;102555.59;4363152;32;8976;-73
2020/12/08 04:06:46;;;;;;;;;30.25;28.50;;;;;-2.76;66.09;102548.00;4352740;32;8940;-73
2020/12/08 04:09:41;;;;;;;;;19.50;18.25;;;;;-2.77;66.12;102557.16;4362268;32;8917;-73
2020/12/08 04:12:37;;;;;;;;;4.00;4.00;;;;;-2.72;65.94;102548.44;4362926;32;8897;-73
2020/12/08 04:15:05;;;;;;;;;14.75;14.00;;;;;-2.52;65.54;102541.31;4367849;32;8983;-73
2020/12/08 04:17:34;;;;;;;;;11.75;11.75;;;;;-2.82;66.50;102544.22;4377581;32;9536;-73
2020/12/08 04:20:29;;;;;;;;;16.00;15.25;;;;;-2.62;66.32;102540.78;4376819;32;8903;-73
2020/12/08 04:23:25;;;;;;;;;15.67;15.67;;;;;-2.35;65.21;102544.53;4377224;32;8892;-73
2020/12/08 04:26:21;;;;;;;;;15.25;13.25;;;;;-2.60;65.95;102542.28;4363325;32;8886;-73
2020/12/08 04:28:48;;;;;;;;;16.50;16.50;;;;;-2.39;65.65;102541.34;4363154;32;9600;-73
2020/12/08 04:31:44;;;;;;;;;16.25;13.75;;;;;-2.49;65.78;102532.75;4352716;32;8922;-73
2020/12/08 04:34:39;;;;;;;;;15.25;14.00;;;;;-2.26;65.26;102533.31;4364085;32;9032;-73
2020/12/08 04:37:20;;;;;;;;;25.00;25.00;;;;;-2.12;64.43;102533.38;4355703;32;8890;-73
2020/12/08 04:40:16;;;;;;;;;4.00;4.00;;;;;-2.15;64.80;102537.31;4373241;32;8974;-72
2020/12/08 04:42:45;;;;;;;;;20.25;20.25;;;;;-2.53;65.59;102532.34;4366852;32;8890;-73
2020/12/08 04:45:41;;;;;;;;;10.00;10.00;;;;;-2.10;64.49;102539.44;4364284;32;8915;-72
2020/12/08 04:48:37;;;;;;;;;16.50;16.50;;;;;-2.48;65.58;102549.84;4359767;33;8972;-73
2020/12/08 04:51:05;;;;;;;;;10.67;10.67;;;;;-2.08;64.77;102550.91;4360870;32;8904;-73
2020/12/08 04:54:01;;;;;;;;;20.50;20.50;;;;;-2.28;65.57;102553.53;4360735;32;8955;-73
2020/12/08 04:56:56;;;;;;;;;12.67;12.67;;;;;-2.32;65.87;102544.94;4361089;32;8971;-73
2020/12/08 05:00:06;;;;;;;;;12.67;12.67;;;;;-2.13;65.67;102551.53;4360416;32;8940;-74
2020/12/08 05:03:03;;;;;;;;;24.75;18.75;;;;;-1.96;65.66;102549.31;4359108;33;8921;-73
2020/12/08 05:05:37;;;;;;;;;14.33;14.33;;;;;-1.91;65.66;102541.41;4362865;32;8884;-73
2020/12/08 05:08:13;;;;;;;;;12.33;12.33;;;;;-1.76;65.22;102542.09;4368365;32;8898;-74
2020/12/08 05:11:08;;;;;;;;;18.00;16.00;;;;;-1.72;64.66;102543.34;4364127;32;8900;-73
2020/12/08 05:13:44;;;;;;;;;20.33;20.33;;;;;-2.02;65.81;102548.22;4361348;32;9585;-73
2020/12/08 05:16:27;;;;;;;;;19.67;16.67;;;;;-2.03;66.46;102551.97;4366063;32;8923;-73
2020/12/08 05:19:22;;;;;;;;;21.33;21.33;;;;;-1.78;65.57;102546.03;4359107;32;8963;-73
2020/12/08 05:21:50;;;;;;;;;21.33;21.33;;;;;-1.69;65.95;102555.66;4359580;32;9565;-73
2020/12/08 05:24:32;;;;;;;;;31.50;29.00;;;;;-1.44;65.25;102556.78;4347654;33;8905;-73
2020/12/08 05:27:05;;;;;;;;;19.00;19.00;;;;;-1.76;66.33;102552.94;4347048;33;9067;-73
2020/12/08 05:29:46;;;;;;;;;23.33;17.67;;;;;-1.70;66.15;102554.81;4361307;32;8931;-73
2020/12/08 05:32:25;;;;;;;;;25.00;23.33;;;;;-1.92;66.69;102566.00;4359835;32;8896;-73
2020/12/08 05:34:56;;;;;;;;;16.00;13.00;;;;;-1.84;66.65;102566.69;4360468;32;9648;-74
2020/12/08 05:37:54;;;;;;;;;24.33;18.33;;;;;-1.98;66.93;102565.78;4363958;32;8907;-75
2020/12/08 05:40:51;;;;;;;;;27.67;26.00;;;;;-1.56;65.82;102566.53;4353665;32;8892;-77
2020/12/08 05:43:47;;;;;;;;;21.50;19.50;;;;;-1.59;65.65;102566.13;4366796;32;8954;-77
2020/12/08 05:46:43;;;;;;;;;23.50;23.50;;;;;-1.73;66.14;102565.25;4354539;32;8915;-77
2020/12/08 05:49:14;;;;;;;;;18.00;15.67;;;;;-1.74;66.61;102559.00;4374953;32;8898;-78
2020/12/08 05:51:50;;;;;;;;;23.67;22.67;;;;;-1.57;66.16;102567.59;4361059;32;8905;-77
2020/12/08 05:54:31;;;;;;;;;32.67;29.00;;;;;-1.77;66.66;102559.37;4335412;33;8908;-77
2020/12/08 05:57:13;;;;;;;;;38.00;36.00;;;;;-1.68;66.62;102554.63;4347380;33;8939;-77
2020/12/08 05:59:53;;;;;;;;;30.25;29.75;;;;;-1.69;66.94;102551.09;4359246;32;8940;-77
2020/12/08 06:02:35;;;;;;;;;17.67;17.67;;;;;-1.69;67.09;102553.81;4358207;32;9077;-77
2020/12/08 06:05:32;;;;;;;;;29.00;27.33;;;;;-1.79;67.53;102556.03;4348522;33;8898;-77
2020/12/08 06:08:28;;;;;;;;;23.33;22.33;;;;;-1.52;66.72;102548.00;4358315;33;9047;-78
2020/12/08 06:10:57;;;;;;;;;12.33;12.00;;;;;-1.40;66.59;102560.75;4360017;32;8900;-77
2020/12/08 06:13:52;;;;;;;;;15.67;15.67;;;;;-1.23;66.29;102547.59;4348203;32;9651;-77
2020/12/08 06:16:23;;;;;;;;;17.67;16.33;;;;;-1.59;67.61;102550.69;4358872;32;8934;-76
2020/12/08 06:19:18;;;;;;;;;12.67;12.67;;;;;-1.24;66.58;102554.09;4347836;33;8948;-76
2020/12/08 06:21:47;;;;;;;;;17.33;16.00;;;;;-1.06;65.69;102550.78;4358810;32;8939;-77
2020/12/08 06:24:30;;;;;;;;;24.33;18.33;;;;;-1.18;66.01;102557.84;4366590;32;8898;-77
2020/12/08 06:27:26;;;;;;;;;22.00;22.00;;;;;-1.49;66.24;102555.72;4372971;32;9641;-76
2020/12/08 06:29:56;;;;;;;;;35.33;30.00;;;;;-1.60;66.39;102559.03;4374320;32;8905;-77
2020/12/08 06:32:53;;;;;;;;;21.00;21.00;;;;;-1.43;65.99;102546.75;4371623;32;9013;-76
2020/12/08 06:35:21;;;;;;;;;14.33;13.00;;;;;-1.42;65.72;102553.84;4373886;32;8882;-77
2020/12/08 06:37:54;;;;;;;;;15.67;15.67;;;;;-1.53;65.65;102555.31;4373821;32;8906;-77
2020/12/08 06:40:38;;;;;;;;;14.33;11.67;;;;;-1.26;64.72;102558.06;4374092;32;8928;-76
2020/12/08 06:43:24;;;;;;;;;10.67;10.67;;;;;-1.36;64.56;102566.59;4338326;32;8890;-76
2020/12/08 06:45:52;;;;;;;;;15.67;15.67;;;;;-1.31;64.61;102561.38;4373677;32;9048;-75
2020/12/08 06:49:01;;;;;;;;;18.33;18.33;;;;;-1.14;63.81;102550.97;4362385;32;8982;-76
2020/12/08 06:51:58;;;;;;;;;22.67;22.33;;;;;-1.17;64.15;102563.06;4361571;32;8941;-76
2020/12/08 06:55:03;;;;;;;;;15.33;15.33;;;;;-1.20;63.68;102557.22;4372882;32;8997;-78
2020/12/08 06:57:34;;;;;;;;;16.67;16.67;;;;;-0.81;62.67;102558.31;4373173;32;8992;-77
2020/12/08 07:00:30;;;;;;;;;13.00;13.00;;;;;-0.68;62.14;102553.69;4372236;32;8915;-76
2020/12/08 07:03:26;;;;;;;;;30.00;27.00;;;;;-0.63;61.13;102555.75;4372617;32;8923;-76
2020/12/08 07:05:58;;;;;;;;;21.00;21.00;;;;;-0.54;60.89;102561.81;4373490;32;8976;-77
2020/12/08 07:08:43;;;;;;;;;24.00;23.33;;;;;-0.56;60.25;102554.72;4360852;32;8895;-77
2020/12/08 07:11:39;;;;;;;;;15.33;14.33;;;;;-0.61;60.49;102540.09;4362376;32;8900;-76
2020/12/08 07:14:29;;;;;;;;;19.67;17.00;;;;;-0.52;60.23;102546.97;4372954;32;9575;-76
2020/12/08 07:17:29;;;;;;;;;19.67;19.00;;;;;-0.44;60.36;102548.66;4362459;32;8946;-76
2020/12/08 07:20:20;;;;;;;;;6.00;6.00;;;;;-0.48;60.15;102545.50;4373307;32;8936;-76
2020/12/08 07:23:15;;;;;;;;;16.00;16.00;;;;;-0.77;60.72;102541.34;4357594;32;9742;-76
2020/12/08 07:25:43;;;;;;;;;23.33;22.33;;;;;-0.43;60.45;102540.25;4345414;33;8912;-75
2020/12/08 07:28:12;;;;;;;;;18.00;18.00;;;;;-0.21;59.65;102543.56;4358078;32;8931;-75
2020/12/08 07:30:48;;;;;;;;;12.33;12.33;;;;;0.15;58.91;102553.03;4357674;32;8908;-75
2020/12/08 07:33:44;;;;;;;;;19.67;16.33;;;;;0.22;58.21;102554.69;4357326;33;9032;-70
2020/12/08 07:36:40;;;;;;;;;18.67;18.67;;;;;0.11;58.37;102541.75;4359170;32;9024;-70
2020/12/08 07:39:35;;;;;;;;;24.67;20.33;;;;;0.04;58.56;102551.84;4358142;32;8921;-71
2020/12/08 07:42:04;;;;;;;;;20.00;16.67;;;;;0.27;57.75;102543.16;4360539;32;8898;-71
2020/12/08 07:44:59;;;;;;;;;14.33;14.33;;;;;0.85;56.72;102545.75;4368299;32;8893;-71
2020/12/08 07:48:01;;;;;;;;;12.00;10.00;;;;;0.59;56.64;102543.19;4358593;32;8905;-70
2020/12/08 07:50:32;;;;;;;;;12.33;12.33;;;;;0.26;57.83;102538.75;4358724;33;8908;-70
2020/12/08 07:53:09;;;;;;;;;18.33;18.33;;;;;0.98;56.24;102532.00;4371944;32;8983;-70
2020/12/08 07:56:05;;;;;;;;;16.67;16.67;;;;;1.39;55.03;102536.88;4364515;32;9023;-71
2020/12/08 07:59:02;;;;;;;;;18.67;17.33;;;;;1.47;54.99;102537.66;4356648;33;8917;-70
2020/12/08 08:01:58;;;;;;;;;24.33;24.33;;;;;1.78;54.24;102521.16;4356754;32;8898;-71
2020/12/08 08:04:25;;;;;;;;;46.33;42.67;;;;;1.20;55.41;102524.25;4344050;33;8901;-71
2020/12/08 08:07:04;;;;;;;;;22.00;20.67;;;;;1.53;54.90;102507.56;4343903;33;8978;-71
2020/12/08 08:09:49;;;;;;;;;19.67;19.33;;;;;1.83;53.89;102517.72;4357745;33;8982;-71
2020/12/08 08:12:45;;;;;;;;;14.33;14.33;;;;;1.32;55.12;102510.75;4359521;32;9008;-71
2020/12/08 08:15:41;;;;;;;;;13.33;13.33;;;;;1.53;55.00;102501.28;4360022;32;8930;-71
2020/12/08 08:18:09;;;;;;;;;13.00;13.00;;;;;1.68;54.29;102497.13;4348443;33;8896;-72
2020/12/08 08:21:06;;;;;;;;;13.67;13.67;;;;;1.80;54.50;102486.28;4350602;32;8901;-71
2020/12/08 08:23:34;;;;;;;;;14.00;14.00;;;;;2.31;52.98;102484.16;4357732;32;8910;-72
2020/12/08 08:26:10;;;;;;;;;20.00;15.67;;;;;2.06;53.63;102496.03;4375052;32;8902;-71
2020/12/08 08:28:54;;;;;;;;;10.33;10.33;;;;;2.20;53.50;102478.41;4375426;32;8910;-71
2020/12/08 08:31:49;;;;;;;;;17.00;15.33;;;;;2.19;53.41;102468.56;4351523;32;8875;-71
2020/12/08 08:34:18;;;;;;;;;8.00;8.00;;;;;2.60;52.76;102468.78;4361802;32;8888;-71
2020/12/08 08:36:51;;;;;;;;;12.33;12.33;;;;;2.60;52.22;102469.63;4361809;32;8982;-71
2020/12/08 08:39:22;;;;;;;;;14.00;11.67;;;;;2.08;53.63;102472.09;4366830;32;12988;-71
2020/12/08 08:41:53;;;;;;;;;10.33;10.33;;;;;2.89;51.81;102478.81;4371931;32;9531;-71
2020/12/08 08:44:22;;;;;;;;;12.33;12.33;;;;;2.48;52.93;102476.97;4375465;32;12981;-70
2020/12/08 08:46:51;;;;;;;;;16.33;15.00;;;;;2.98;51.91;102477.41;4361363;32;8965;-70
2020/12/08 08:49:19;;;;;;;;;12.00;9.67;;;;;3.15;51.03;102468.53;4361559;32;12328;-71
2020/12/08 08:51:50;;;;;;;;;11.00;9.67;;;;;2.75;51.53;102463.72;4365178;32;12284;-69
2020/12/08 08:54:19;;;;;;;;;20.33;14.33;;;;;2.73;51.86;102469.41;4360990;32;12319;-70
2020/12/08 08:56:47;;;;;;;;;14.33;14.33;;;;;3.00;51.44;102461.63;4347668;32;12391;-70
2020/12/08 08:59:15;;;;;;;;;9.67;9.67;;;;;3.32;50.64;102473.03;4359784;32;12329;-70
2020/12/08 09:01:43;;;;;;;;;10.67;10.67;;;;;2.68;51.94;102482.13;4362470;32;8862;-71
2020/12/08 09:04:10;;;;;;;;;9.25;9.25;;;;;2.68;52.19;102473.91;4345916;32;12316;-69
2020/12/08 09:06:56;;;;;;;;;17.33;17.33;;;;;3.20;51.02;102477.66;4360325;32;12305;-70
2020/12/08 09:09:52;;;;;;;;;17.33;17.33;;;;;3.14;51.10;102481.34;4368523;32;12361;-70
2020/12/08 09:12:23;;;;;;;;;12.50;10.00;;;;;2.63;52.26;102473.81;4375329;32;12349;-71
2020/12/08 09:15:19;;;;;;;;;10.33;10.33;;;;;3.50;50.26;102469.31;4373881;32;12466;-70
2020/12/08 09:18:16;;;;;;;;;11.50;11.50;;;;;3.24;50.59;102458.88;4374025;32;12453;-70
2020/12/08 09:21:12;;;;;;;;;14.50;13.25;;;;;3.83;49.55;102462.31;4364073;32;12286;-70
2020/12/08 09:23:40;;;;;;;;;17.50;15.25;;;;;4.33;48.47;102459.75;4374226;32;12378;-69
2020/12/08 09:26:21;;;;;;;;;18.50;16.50;;;;;4.01;48.88;102453.97;4375369;32;12325;-70
2020/12/08 09:29:17;;;;;;;;;19.25;12.25;;;;;4.54;48.18;102460.97;4373473;32;13166;-69
2020/12/08 09:32:13;;;;;;;;;21.50;18.00;;;;;4.01;48.64;102464.91;4362468;32;12379;-69
2020/12/08 09:34:45;;;;;;;;;12.50;12.50;;;;;4.31;48.55;102459.19;4374459;32;12366;-70
2020/12/08 09:37:42;;;;;;;;;21.75;20.50;;;;;4.54;47.89;102454.66;4363082;32;12374;-70
2020/12/08 09:40:11;;;;;;;;;14.00;14.00;;;;;4.86;47.36;102455.75;4360943;32;12371;-70
2020/12/08 09:42:53;;;;;;;;;21.50;20.50;;;;;5.08;46.48;102435.78;4361366;32;12360;-69
2020/12/08 09:45:50;;;;;;;;;12.50;8.75;;;;;4.38;47.04;102445.34;4358409;33;12338;-70
2020/12/08 09:48:45;;;;;;;;;9.25;9.25;;;;;4.13;47.44;102438.28;4339943;33;12328;-70
2020/12/08 09:51:12;;;;;;;;;28.25;27.50;;;;;4.81;46.59;102441.13;4359976;32;12323;-69
2020/12/08 09:54:08;;;;;;;;;14.50;13.25;;;;;4.63;46.65;102442.19;4358390;32;12375;-70
2020/12/08 09:57:04;;;;;;;;;22.50;19.00;;;;;4.26;47.20;102444.56;4358714;32;12503;-70
2020/12/08 10:00:04;;;;;;;;;14.75;14.75;;;;;4.43;46.82;102427.06;4358179;32;12368;-70
2020/12/08 10:03:01;;;;;;;;;11.25;11.00;;;;;5.20;45.75;102440.06;4357868;33;12362;-70
2020/12/08 10:05:55;;;;;;;;;15.75;15.75;;;;;4.58;46.31;102431.97;4349304;33;12319;-73
2020/12/08 10:08:54;;;;;;;;;16.25;11.75;;;;;4.87;45.67;102437.38;4358233;33;12426;-70
2020/12/08 10:11:24;;;;;;;;;15.50;15.50;;;;;4.72;45.86;102427.81;4359336;32;12318;-70
2020/12/08 10:14:19;;;;;;;;;12.50;12.50;;;;;4.86;45.67;102422.00;4357768;32;13089;-70
2020/12/08 10:17:15;;;;;;;;;15.50;12.75;;;;;4.49;46.44;102417.03;4371352;32;12427;-69
2020/12/08 10:20:11;;;;;;;;;15.00;13.00;;;;;4.96;45.45;102422.16;4373989;32;12465;-70
2020/12/08 10:22:38;;;;;;;;;14.75;14.75;;;;;4.60;45.87;102426.22;4368382;32;12359;-70
2020/12/08 10:25:06;;;;;;;;;24.00;23.50;;;;;4.97;45.35;102418.34;4358710;32;12416;-70
2020/12/08 10:27:42;;;;;;;;;18.00;18.00;;;;;5.45;44.71;102425.06;4346484;33;12393;-70
2020/12/08 10:30:38;;;;;;;;;8.25;8.25;;;;;5.21;44.62;102436.28;4348812;33;12445;-71
2020/12/08 10:33:34;;;;;;;;;19.00;17.00;;;;;4.99;45.52;102433.47;4372672;32;12284;-70
2020/12/08 10:36:29;;;;;;;;;8.50;8.50;;;;;5.27;44.87;102427.00;4367017;32;12353;-70
2020/12/08 10:39:00;;;;;;;;;11.75;10.25;;;;;4.87;46.38;102427.25;4368011;32;12330;-69
2020/12/08 10:41:29;;;;;;;;;13.75;13.00;;;;;5.56;44.81;102419.44;4349359;32;12314;-70
2020/12/08 10:44:25;;;;;;;;;12.50;12.50;;;;;5.76;44.61;102420.78;4381506;32;12479;-71
2020/12/08 10:47:15;;;;;;;;;15.00;12.50;;;;;5.42;45.21;102407.19;4360129;32;12302;-70
2020/12/08 10:49:43;;;;;;;;;9.25;9.25;;;;;5.55;44.82;102425.19;4346334;33;12381;-70
2020/12/08 10:52:39;;;;;;;;;8.25;8.25;;;;;5.15;45.24;102418.06;4360948;32;12330;-70
2020/12/08 10:55:17;;;;;;;;;15.50;15.50;;;;;5.00;46.03;102420.59;4370540;32;12336;-70
2020/12/08 10:57:48;;;;;;;;;12.25;12.25;;;;;5.56;44.95;102424.09;4371050;32;12380;-72
2020/12/08 11:00:39;;;;;;;;;12.00;12.00;;;;;5.69;44.67;102414.66;4367404;32;12336;-71
2020/12/08 11:03:21;;;;;;;;;20.75;19.50;;;;;6.04;44.08;102404.09;4367872;32;12311;-71
2020/12/08 11:06:08;;;;;;;;;10.50;10.50;;;;;5.72;44.08;102404.00;4373721;32;12405;-72
2020/12/08 11:08:35;;;;;;;;;14.25;14.25;;;;;5.03;45.20;102401.72;4369118;32;12503;-70
2020/12/08 11:11:05;;;;;;;;;12.75;12.50;;;;;5.69;44.09;102390.78;4371912;32;12375;-70
2020/12/08 11:14:01;;;;;;;;;26.50;24.00;;;;;6.01;43.51;102387.31;4358193;32;12333;-70
2020/12/08 11:17:00;;;;;;;;;16.25;16.25;;;;;5.02;45.08;102386.34;4363609;32;12397;-70
2020/12/08 11:19:56;;;;;;;;;15.50;15.50;;;;;5.41;44.28;102390.97;4371655;32;12392;-70
2020/12/08 11:22:51;;;;;;;;;16.00;14.25;;;;;5.65;43.79;102386.06;4372140;32;12311;-70
2020/12/08 11:25:47;;;;;;;;;20.25;20.25;;;;;5.41;44.05;102390.97;4371485;32;12391;-70
2020/12/08 11:28:15;;;;;;;;;25.50;19.50;;;;;5.32;44.27;102382.37;4373835;32;12375;-70
2020/12/08 11:30:43;;;;;;;;;10.00;9.50;;;;;5.57;43.63;102387.34;4367429;32;12345;-70
2020/12/08 11:33:39;;;;;;;;;14.75;13.25;;;;;5.10;44.63;102381.50;4365620;32;12542;-70
2020/12/08 11:36:35;;;;;;;;;17.75;16.25;;;;;4.93;44.56;102379.63;4357774;32;12397;-70
2020/12/08 11:39:31;;;;;;;;;20.75;18.50;;;;;5.57;43.61;102392.81;4356826;32;12405;-70
2020/12/08 11:42:27;;;;;;;;;13.00;13.00;;;;;5.02;44.17;102383.59;4357620;32;12408;-70
2020/12/08 11:44:55;;;;;;;;;11.00;11.00;;;;;4.61;45.20;102387.66;4358654;32;12385;-70
2020/12/08 11:47:51;;;;;;;;;31.75;30.00;;;;;4.16;45.54;102394.00;4359354;32;12312;-70
2020/12/08 11:50:46;;;;;;;;;44.33;40.67;;;;;4.03;45.22;102390.72;4360384;32;12393;-70
2020/12/08 11:53:42;;;;;;;;;19.25;18.25;;;;;3.99;44.91;102389.53;4372592;32;12362;-70
2020/12/08 11:56:37;;;;;;;;;15.75;15.00;;;;;4.18;44.55;102400.06;4375534;32;12389;-70
2020/12/08 11:59:33;;;;;;;;;6.25;6.25;;;;;3.90;44.74;102400.88;4374639;32;12343;-71
2020/12/08 12:02:29;;;;;;;;;13.25;13.25;;;;;3.93;44.90;102396.84;4370609;32;12290;-70
2020/12/08 12:05:24;;;;;;;;;20.50;19.50;;;;;3.82;44.75;102397.72;4356621;32;12348;-71
2020/12/08 12:07:52;;;;;;;;;10.50;10.00;;;;;3.94;44.30;102395.78;4352935;32;12371;-71
2020/12/08 12:10:47;;;;;;;;;17.75;16.25;;;;;3.77;44.35;102408.59;4360184;32;12532;-71
2020/12/08 12:13:29;;;;;;;;;12.50;12.50;;;;;3.82;44.33;102386.78;4360537;32;12391;-71
2020/12/08 12:16:25;;;;;;;;;25.50;25.00;;;;;4.11;43.92;102385.69;4359652;32;12495;-72
2020/12/08 12:18:53;;;;;;;;;7.75;7.00;;;;;3.77;43.99;102376.56;4362174;32;12339;-72
2020/12/08 12:21:49;;;;;;;;;18.25;15.50;;;;;3.53;44.05;102370.34;4365597;32;12444;-70
2020/12/08 12:24:30;;;;;;;;;18.00;16.50;;;;;3.21;44.60;102372.66;4375021;32;12419;-70
2020/12/08 12:26:57;;;;;;;;;20.75;16.75;;;;;3.44;44.45;102354.53;4375270;32;12477;-70
2020/12/08 12:29:28;;;;;;;;;12.50;12.50;;;;;3.15;44.68;102359.16;4374513;32;12379;-70
2020/12/08 12:32:23;;;;;;;;;10.00;10.00;;;;;3.02;44.73;102360.25;4364187;32;12952;-70
2020/12/08 12:35:19;;;;;;;;;7.00;7.00;;;;;2.95;44.83;102352.16;4372158;32;12458;-70
2020/12/08 12:38:15;;;;;;;;;14.75;13.50;;;;;2.99;44.24;102349.75;4364624;32;12429;-70
2020/12/08 12:41:11;;;;;;;;;13.75;13.75;;;;;2.70;44.50;102357.88;4374657;32;12472;-70
2020/12/08 12:43:41;;;;;;;;;4.00;4.00;;;;;2.97;44.21;102350.00;4369404;32;12354;-70